createdAt,value
2022-10-19T00:00:05.506Z,99109.33
2022-10-19T00:02:55.502Z,99109.55
2022-10-19T00:05:23.321Z,99105.87
2022-10-19T00:07:51.124Z,99100.02
2022-10-19T00:10:18.988Z,99098.13
2022-10-19T00:15:55.303Z,99104.30
2022-10-19T00:18:23.050Z,99104.60
2022-10-19T00:20:51.917Z,99105.11
2022-10-19T00:23:23.287Z,99101.67
2022-10-19T00:25:56.629Z,99104.73
2022-10-19T00:28:24.568Z,99104.53
2022-10-19T00:30:52.826Z,99104.71
2022-10-19T00:33:25.373Z,99104.88
2022-10-19T00:36:02.103Z,99097.13
2022-10-19T00:38:31.023Z,99100.45
2022-10-19T00:41:02.514Z,99099.14
2022-10-19T00:43:31.768Z,99101.45
2022-10-19T00:46:05.375Z,99105.84
2022-10-19T00:48:34.444Z,99099.30
2022-10-19T00:51:09.572Z,99093.57
2022-10-19T00:53:45.446Z,99090.30
2022-10-19T00:56:21.418Z,99087.42
2022-10-19T00:58:57.413Z,99082.77
2022-10-19T01:01:27.394Z,99081.32
2022-10-19T01:03:55.247Z,99078.55
2022-10-19T01:06:28.452Z,99073.13
2022-10-19T01:08:57.393Z,99072.34
2022-10-19T01:11:53.771Z,99069.92
2022-10-19T01:14:59.103Z,99073.13
2022-10-19T01:17:39.539Z,99066.48
2022-10-19T01:20:27.215Z,99066.90
2022-10-19T01:23:25.766Z,99062.72
2022-10-19T01:26:19.197Z,99055.90
2022-10-19T01:28:54.056Z,99056.19
2022-10-19T01:31:48.352Z,99061.30
2022-10-19T01:34:33.165Z,99061.23
2022-10-19T01:37:28.441Z,99053.19
2022-10-19T01:40:12.698Z,99054.10
2022-10-19T01:43:01.359Z,99054.22
2022-10-19T01:45:44.720Z,99053.50
2022-10-19T01:48:31.109Z,99053.33
2022-10-19T01:51:11.442Z,99057.80
2022-10-19T01:53:49.146Z,99068.77
2022-10-19T01:56:23.677Z,99066.89
2022-10-19T01:59:06.360Z,99067.75
2022-10-19T02:01:38.780Z,99064.34
2022-10-19T02:04:11.313Z,99062.36
2022-10-19T02:06:41.665Z,99059.08
2022-10-19T02:09:17.894Z,99054.23
2022-10-19T02:11:53.416Z,99057.52
2022-10-19T02:14:31.935Z,99051.69
2022-10-19T02:17:05.342Z,99052.27
2022-10-19T02:19:35.439Z,99046.05
2022-10-19T02:22:14.419Z,99048.16
2022-10-19T02:24:50.460Z,99044.32
2022-10-19T02:27:26.002Z,99044.85
2022-10-19T02:29:55.745Z,99043.23
2022-10-19T02:32:28.390Z,99035.81
2022-10-19T02:35:02.010Z,99031.69
2022-10-19T02:37:32.308Z,99032.60
2022-10-19T02:40:01.180Z,99034.46
2022-10-19T02:42:54.376Z,99036.30
2022-10-19T02:45:31.025Z,99038.02
2022-10-19T02:48:05.046Z,99035.48
2022-10-19T02:50:33.322Z,99038.39
2022-10-19T02:53:01.557Z,99041.79
2022-10-19T02:55:30.792Z,99040.95
2022-10-19T02:58:02.270Z,99046.71
2022-10-19T03:00:31.188Z,99048.05
2022-10-19T03:03:02.923Z,99049.70
2022-10-19T03:05:30.820Z,99044.31
2022-10-19T03:08:00.684Z,99047.64
2022-10-19T03:10:37.488Z,99049.51
2022-10-19T03:13:12.314Z,99045.40
2022-10-19T03:15:40.083Z,99046.27
2022-10-19T03:18:13.256Z,99051.55
2022-10-19T03:20:42.138Z,99049.13
2022-10-19T03:23:11.027Z,99048.23
2022-10-19T03:25:40.855Z,99045.52
2022-10-19T03:28:08.685Z,99038.27
2022-10-19T03:30:46.423Z,99047.02
2022-10-19T03:33:20.496Z,99043.43
2022-10-19T03:35:48.429Z,99044.64
2022-10-19T03:38:17.475Z,99043.36
2022-10-19T03:40:51.564Z,99044.45
2022-10-19T03:43:20.435Z,99044.04
2022-10-19T03:45:48.416Z,99041.55
2022-10-19T03:48:22.412Z,99038.02
2022-10-19T03:51:10.510Z,99038.75
2022-10-19T03:53:40.637Z,99040.70
2022-10-19T03:56:12.532Z,99032.77
2022-10-19T03:58:42.101Z,99035.12
2022-10-19T04:01:21.232Z,99033.73
2022-10-19T04:03:56.133Z,99036.52
2022-10-19T04:06:29.554Z,99036.52
2022-10-19T04:08:59.481Z,99037.59
2022-10-19T04:11:30.423Z,99041.36
2022-10-19T04:14:32.482Z,99039.63
2022-10-19T04:17:02.779Z,99042.05
2022-10-19T04:19:38.405Z,99040.19
2022-10-19T04:22:07.156Z,99045.33
2022-10-19T04:24:37.061Z,99043.98
2022-10-19T04:27:06.313Z,99047.92
2022-10-19T04:29:37.239Z,99047.61
2022-10-19T04:32:07.049Z,99040.42
2022-10-19T04:34:37.664Z,99037.77
2022-10-19T04:37:14.292Z,99040.36
2022-10-19T04:39:43.395Z,99041.98
2022-10-19T04:42:21.407Z,99045.16
2022-10-19T04:44:51.365Z,99041.84
2022-10-19T04:47:21.206Z,99040.82
2022-10-19T04:49:52.379Z,99039.91
2022-10-19T04:52:22.579Z,99040.33
2022-10-19T04:54:50.412Z,99034.31
2022-10-19T04:57:24.358Z,99035.01
2022-10-19T04:59:59.438Z,99032.09
2022-10-19T05:02:37.438Z,99024.19
2022-10-19T05:05:05.765Z,99015.59
2022-10-19T05:07:34.944Z,99016.25
2022-10-19T05:10:04.068Z,99015.41
2022-10-19T05:12:34.199Z,99010.49
2022-10-19T05:15:05.798Z,99008.41
2022-10-19T05:17:33.887Z,99008.20
2022-10-19T05:20:11.382Z,99010.08
2022-10-19T05:22:40.550Z,99009.13
2022-10-19T05:25:09.126Z,99010.06
2022-10-19T05:27:38.932Z,99007.52
2022-10-19T05:30:14.781Z,99005.10
2022-10-19T05:32:44.838Z,99007.12
2022-10-19T05:35:16.387Z,99012.95
2022-10-19T05:37:48.671Z,99014.62
2022-10-19T05:40:17.449Z,99015.36
2022-10-19T05:42:52.375Z,99016.36
2022-10-19T05:45:21.272Z,99017.27
2022-10-19T05:47:51.047Z,99019.60
2022-10-19T05:50:20.012Z,99024.34
2022-10-19T05:52:47.850Z,99026.01
2022-10-19T05:55:20.299Z,99024.23
2022-10-19T05:57:49.291Z,99026.38
2022-10-19T06:00:20.424Z,99030.50
2022-10-19T06:02:58.966Z,99031.76
2022-10-19T06:05:31.398Z,99034.45
2022-10-19T06:08:05.311Z,99036.61
2022-10-19T06:10:34.014Z,99038.45
2022-10-19T06:13:06.370Z,99041.83
2022-10-19T06:15:36.376Z,99042.89
2022-10-19T06:18:05.125Z,99045.11
2022-10-19T06:20:42.416Z,99042.86
2022-10-19T06:23:12.329Z,99046.30
2022-10-19T06:25:47.569Z,99048.84
2022-10-19T06:28:16.487Z,99043.82
2022-10-19T06:30:45.361Z,99052.09
2022-10-19T06:33:19.523Z,99055.08
2022-10-19T06:36:26.521Z,99054.73
2022-10-19T06:39:01.881Z,99051.88
2022-10-19T06:41:31.306Z,99052.69
2022-10-19T06:44:01.887Z,99061.60
2022-10-19T06:46:32.239Z,99064.11
2022-10-19T06:49:04.344Z,99067.95
2022-10-19T06:51:35.614Z,99065.86
2022-10-19T06:54:04.481Z,99066.63
2022-10-19T06:56:39.369Z,99070.25
2022-10-19T06:59:17.613Z,99076.66
2022-10-19T07:01:49.231Z,99074.77
2022-10-19T07:04:17.126Z,99081.56
2022-10-19T07:06:45.964Z,99078.85
2022-10-19T07:09:13.771Z,99075.39
2022-10-19T07:11:46.196Z,99082.76
2022-10-19T07:14:21.345Z,99088.29
2022-10-19T07:16:50.549Z,99089.94
2022-10-19T07:19:26.989Z,99089.14
2022-10-19T07:21:55.841Z,99090.92
2022-10-19T07:24:23.844Z,99089.82
2022-10-19T07:26:52.649Z,99088.52
2022-10-19T07:29:21.945Z,99092.98
2022-10-19T07:31:50.897Z,99090.73
2022-10-19T07:34:23.146Z,99092.80
2022-10-19T07:36:59.359Z,99087.96
2022-10-19T07:39:28.212Z,99085.63
2022-10-19T07:41:57.164Z,99087.45
2022-10-19T07:44:26.449Z,99087.86
2022-10-19T07:47:01.406Z,99093.29
2022-10-19T07:49:37.533Z,99097.19
2022-10-19T07:52:05.465Z,99098.73
2022-10-19T07:54:33.072Z,99097.83
2022-10-19T07:57:03.477Z,99088.30
2022-10-19T07:59:32.648Z,99092.25
2022-10-19T08:02:04.677Z,99094.96
2022-10-19T08:05:00.383Z,99098.46
2022-10-19T08:07:21.553Z,99096.61
2022-10-19T08:09:54.309Z,99095.64
2022-10-19T08:12:23.492Z,99095.63
2022-10-19T08:14:53.965Z,99095.92
2022-10-19T08:17:21.805Z,99099.45
2022-10-19T08:19:51.749Z,99100.66
2022-10-19T08:22:21.561Z,99098.17
2022-10-19T08:24:51.372Z,99099.54
2022-10-19T08:27:19.020Z,99099.69
2022-10-19T08:29:48.836Z,99099.29
2022-10-19T08:32:24.584Z,99095.83
2022-10-19T08:34:52.478Z,99100.46
2022-10-19T08:37:40.622Z,99099.41
2022-10-19T08:40:28.392Z,99097.27
2022-10-19T08:43:34.413Z,99101.25
2022-10-19T08:46:18.533Z,99105.61
2022-10-19T08:48:57.692Z,99105.35
2022-10-19T08:51:37.631Z,99102.83
2022-10-19T08:54:13.804Z,99103.02
2022-10-19T08:57:15.620Z,99107.92
2022-10-19T09:00:02.804Z,99107.88
2022-10-19T09:02:54.798Z,99104.56
2022-10-19T09:05:50.551Z,99104.52
2022-10-19T09:08:21.069Z,99106.50
2022-10-19T09:10:54.990Z,99109.52
2022-10-19T09:14:04.270Z,99108.84
2022-10-19T09:16:37.292Z,99117.13
2022-10-19T09:19:25.852Z,99117.00
2022-10-19T09:22:02.998Z,99123.73
2022-10-19T09:24:51.771Z,99121.77
2022-10-19T09:27:35.701Z,99120.36
2022-10-19T09:30:23.518Z,99121.39
2022-10-19T09:33:02.788Z,99117.67
2022-10-19T09:35:43.566Z,99120.04
2022-10-19T09:38:16.907Z,99118.99
2022-10-19T09:40:47.237Z,99117.34
2022-10-19T09:43:20.807Z,99125.61
2022-10-19T09:46:19.985Z,99124.59
2022-10-19T09:48:55.748Z,99131.95
2022-10-19T09:51:25.709Z,99127.48
2022-10-19T09:53:56.046Z,99128.45
2022-10-19T09:56:27.335Z,99130.75
2022-10-19T09:58:57.865Z,99130.10
2022-10-19T10:01:41.556Z,99126.59
2022-10-19T10:04:17.309Z,99129.84
2022-10-19T10:06:48.203Z,99133.79
2022-10-19T10:09:26.035Z,99131.46
2022-10-19T10:11:56.982Z,99131.52
2022-10-19T10:14:33.377Z,99124.62
2022-10-19T10:17:18.263Z,99125.00
2022-10-19T10:20:03.455Z,99121.45
2022-10-19T10:22:36.031Z,99121.50
2022-10-19T10:25:13.810Z,99115.98
2022-10-19T10:27:41.701Z,99111.18
2022-10-19T10:30:18.765Z,99115.36
2022-10-19T10:33:04.615Z,99115.98
2022-10-19T10:35:53.552Z,99124.48
2022-10-19T10:38:26.360Z,99124.56
2022-10-19T10:41:01.101Z,99124.16
2022-10-19T10:43:33.205Z,99125.54
2022-10-19T10:46:07.877Z,99129.96
2022-10-19T10:48:43.120Z,99127.73
2022-10-19T10:51:22.045Z,99122.27
2022-10-19T10:53:50.962Z,99118.15
2022-10-19T10:56:29.869Z,99117.56
2022-10-19T10:59:32.995Z,99115.95
2022-10-19T11:02:13.045Z,99118.31
2022-10-19T11:04:52.169Z,99121.56
2022-10-19T11:07:26.148Z,99118.38
2022-10-19T11:10:02.727Z,99122.42
2022-10-19T11:13:02.065Z,99121.88
2022-10-19T11:15:52.545Z,99122.79
2022-10-19T11:18:32.564Z,99120.99
2022-10-19T11:21:02.417Z,99112.57
2022-10-19T11:23:35.406Z,99106.20
2022-10-19T11:26:32.555Z,99102.58
2022-10-19T11:29:21.893Z,99105.00
2022-10-19T11:31:53.345Z,99100.50
2022-10-19T11:34:33.352Z,99102.33
2022-10-19T11:37:30.732Z,99104.48
2022-10-19T11:40:22.130Z,99100.02
2022-10-19T11:43:07.019Z,99097.75
2022-10-19T11:45:42.839Z,99099.67
2022-10-19T11:48:43.774Z,99094.84
2022-10-19T11:51:22.897Z,99094.95
2022-10-19T11:54:19.303Z,99096.77
2022-10-19T11:57:07.311Z,99093.06
2022-10-19T12:00:15.228Z,99088.83
2022-10-19T12:03:03.838Z,99084.29
2022-10-19T12:05:42.340Z,99080.87
2022-10-19T12:08:25.617Z,99076.95
2022-10-19T12:11:02.707Z,99079.71
2022-10-19T12:13:48.786Z,99084.55
2022-10-19T12:16:19.295Z,99084.99
2022-10-19T12:18:55.473Z,99083.36
2022-10-19T12:21:43.165Z,99079.61
2022-10-19T12:24:22.634Z,99076.63
2022-10-19T12:26:54.905Z,99073.20
2022-10-19T12:29:35.912Z,99071.92
2022-10-19T12:32:07.284Z,99069.80
2022-10-19T12:34:39.229Z,99073.09
2022-10-19T12:37:27.142Z,99073.37
2022-10-19T12:40:00.153Z,99071.45
2022-10-19T12:42:42.076Z,99069.03
2022-10-19T12:45:36.525Z,99068.71
2022-10-19T12:48:08.591Z,99073.13
2022-10-19T12:50:49.790Z,99073.75
2022-10-19T12:53:23.800Z,99074.66
2022-10-19T12:55:59.325Z,99073.48
2022-10-19T12:58:34.335Z,99069.66
2022-10-19T13:01:18.273Z,99072.31
2022-10-19T13:03:51.535Z,99076.87
2022-10-19T13:06:23.594Z,99078.10
2022-10-19T13:08:53.552Z,99072.61
2022-10-19T13:11:22.759Z,99068.33
2022-10-19T13:14:12.130Z,99074.34
2022-10-19T13:17:02.004Z,99076.38
2022-10-19T13:19:34.696Z,99081.77
2022-10-19T13:22:02.597Z,99079.64
2022-10-19T13:24:34.647Z,99084.30
2022-10-19T13:27:27.058Z,99086.54
2022-10-19T13:29:55.377Z,99083.38
2022-10-19T13:32:43.650Z,99083.49
2022-10-19T13:35:34.760Z,99083.76
2022-10-19T13:38:17.006Z,99081.16
2022-10-19T13:40:48.951Z,99083.00
2022-10-19T13:43:23.694Z,99087.40
2022-10-19T13:46:10.124Z,99090.65
2022-10-19T13:49:03.782Z,99085.30
2022-10-19T13:51:46.137Z,99090.83
2022-10-19T13:54:36.006Z,99088.89
2022-10-19T13:57:17.857Z,99087.97
2022-10-19T13:59:54.983Z,99084.35
2022-10-19T14:02:58.784Z,99079.65
2022-10-19T14:05:54.427Z,99081.09
2022-10-19T14:09:05.408Z,99081.84
2022-10-19T14:12:17.684Z,99085.61
2022-10-19T14:14:45.577Z,99084.83
2022-10-19T14:17:21.202Z,99090.13
2022-10-19T14:20:00.674Z,99095.99
2022-10-19T14:22:31.053Z,99097.40
2022-10-19T14:25:02.954Z,99097.27
2022-10-19T14:27:35.156Z,99102.83
2022-10-19T14:30:35.703Z,99105.98
2022-10-19T14:33:11.970Z,99103.21
2022-10-19T14:35:45.042Z,99100.94
2022-10-19T14:38:26.341Z,99095.25
2022-10-19T14:40:55.842Z,99093.30
2022-10-19T14:43:30.204Z,99091.80
2022-10-19T14:46:18.747Z,99087.14
2022-10-19T14:48:50.529Z,99085.38
2022-10-19T14:51:43.011Z,99088.98
2022-10-19T14:54:19.151Z,99082.55
2022-10-19T14:56:49.645Z,99088.66
2022-10-19T14:59:36.432Z,99083.70
2022-10-19T15:02:25.360Z,99083.74
2022-10-19T15:04:58.110Z,99085.95
2022-10-19T15:07:30.184Z,99085.59
2022-10-19T15:10:16.591Z,99092.38
2022-10-19T15:12:45.870Z,99097.38
2022-10-19T15:15:30.720Z,99091.65
2022-10-19T15:18:01.665Z,99096.73
2022-10-19T15:20:49.392Z,99097.33
2022-10-19T15:23:42.113Z,99103.45
2022-10-19T15:26:17.253Z,99101.48
2022-10-19T15:28:46.641Z,99100.46
2022-10-19T15:31:27.794Z,99104.72
2022-10-19T15:34:02.009Z,99103.40
2022-10-19T15:36:34.628Z,99105.39
2022-10-19T15:39:18.344Z,99100.95
2022-10-19T15:41:55.216Z,99107.61
2022-10-19T15:44:42.969Z,99116.48
2022-10-19T15:47:19.183Z,99123.04
2022-10-19T15:49:56.844Z,99130.84
2022-10-19T15:52:37.389Z,99130.24
2022-10-19T15:55:11.839Z,99129.30
2022-10-19T15:57:40.789Z,99126.55
2022-10-19T16:00:18.024Z,99125.48
2022-10-19T16:02:45.823Z,99125.66
2022-10-19T16:05:14.031Z,99133.44
2022-10-19T16:07:43.888Z,99137.80
2022-10-19T16:10:20.378Z,99136.58
2022-10-19T16:12:49.706Z,99139.83
2022-10-19T16:15:23.508Z,99147.33
2022-10-19T16:17:54.919Z,99153.94
2022-10-19T16:20:30.591Z,99155.17
2022-10-19T16:22:59.514Z,99155.08
2022-10-19T16:25:33.497Z,99149.52
2022-10-19T16:28:09.297Z,99152.69
2022-10-19T16:30:38.107Z,99152.31
2022-10-19T16:33:07.053Z,99151.70
2022-10-19T16:35:39.581Z,99157.49
2022-10-19T16:38:08.548Z,99159.73
2022-10-19T16:40:44.401Z,99166.05
2022-10-19T16:43:15.274Z,99162.73
2022-10-19T16:45:44.771Z,99164.89
2022-10-19T16:48:13.476Z,99166.18
2022-10-19T16:53:23.518Z,99171.73
2022-10-19T16:55:52.529Z,99172.52
2022-10-19T16:58:20.301Z,99173.64
2022-10-19T17:00:49.542Z,99182.14
2022-10-19T17:03:23.546Z,99176.89
2022-10-19T17:05:52.633Z,99180.98
2022-10-19T17:08:23.899Z,99181.48
2022-10-19T17:10:55.534Z,99184.73
2022-10-19T17:13:23.723Z,99187.18
2022-10-19T17:15:53.818Z,99186.70
2022-10-19T17:18:21.901Z,99191.45
2022-10-19T17:26:03.414Z,99187.17
2022-10-19T17:28:32.896Z,99202.64
2022-10-19T17:31:09.518Z,99209.56
2022-10-19T17:33:40.835Z,99204.58
2022-10-19T17:36:12.977Z,99216.73
2022-10-19T17:38:49.707Z,99221.42
2022-10-19T17:41:22.351Z,99228.58
2022-10-19T17:43:58.412Z,99223.79
2022-10-19T17:46:34.639Z,99231.77
2022-10-19T17:49:03.643Z,99235.56
2022-10-19T17:51:35.877Z,99233.09
2022-10-19T17:54:07.978Z,99236.86
2022-10-19T17:56:38.624Z,99236.55
2022-10-19T17:59:08.980Z,99239.20
2022-10-19T18:01:43.833Z,99242.84
2022-10-19T18:04:15.629Z,99240.55
2022-10-19T18:06:43.899Z,99241.05
2022-10-19T18:09:20.390Z,99242.09
2022-10-19T18:12:07.583Z,99242.02
2022-10-19T18:14:42.065Z,99240.65
2022-10-19T18:17:31.266Z,99242.54
2022-10-19T18:20:13.224Z,99242.61
2022-10-19T18:22:50.180Z,99241.02
2022-10-19T18:25:49.325Z,99239.44
2022-10-19T18:28:24.449Z,99243.98
2022-10-19T18:30:57.251Z,99248.27
2022-10-19T18:33:32.860Z,99250.95
2022-10-19T18:48:30.803Z,99261.89
2022-10-19T18:51:06.700Z,99259.54
2022-10-19T18:53:44.972Z,99260.40
2022-10-19T18:56:22.487Z,99261.66
2022-10-19T18:58:54.527Z,99265.86
2022-10-19T19:01:27.858Z,99262.48
2022-10-19T19:04:09.723Z,99265.80
2022-10-19T19:06:40.136Z,99266.67
2022-10-19T19:09:12.021Z,99269.73
2022-10-19T19:11:42.316Z,99274.09
2022-10-19T19:14:18.557Z,99274.16
2022-10-19T19:16:48.211Z,99273.80
2022-10-19T19:19:18.619Z,99281.92
2022-10-19T19:21:49.996Z,99268.80
2022-10-19T19:24:23.535Z,99276.25
2022-10-19T19:26:55.292Z,99280.95
2022-10-19T19:29:57.510Z,99280.58
2022-10-19T19:32:32.189Z,99276.18
2022-10-19T19:35:03.677Z,99286.55
2022-10-19T19:37:35.660Z,99289.42
2022-10-19T19:40:04.410Z,99281.50
2022-10-19T19:42:32.650Z,99300.36
2022-10-19T19:45:02.151Z,99302.90
2022-10-19T19:47:33.278Z,99304.11
2022-10-19T19:50:04.155Z,99307.34
2022-10-19T19:52:34.851Z,99307.00
2022-10-19T19:55:07.161Z,99310.66
2022-10-19T19:57:38.668Z,99310.46
2022-10-19T20:00:09.296Z,99318.41
2022-10-19T20:02:41.413Z,99324.11
2022-10-19T20:05:15.553Z,99326.50
2022-10-19T20:07:43.400Z,99324.02
2022-10-19T20:10:18.200Z,99327.66
2022-10-19T20:12:46.993Z,99327.40
2022-10-19T20:15:17.032Z,99333.52
2022-10-19T20:17:45.682Z,99332.94
2022-10-19T20:20:19.488Z,99331.01
2022-10-19T20:22:49.818Z,99329.61
2022-10-19T20:25:18.192Z,99332.75
2022-10-19T20:27:51.372Z,99335.98
2022-10-19T20:30:23.640Z,99337.27
2022-10-19T20:32:55.390Z,99337.55
2022-10-19T20:35:30.445Z,99344.14
2022-10-19T20:37:59.411Z,99351.40
2022-10-19T20:43:01.419Z,99347.27
2022-10-19T20:45:33.477Z,99344.60
2022-10-19T20:48:09.426Z,99345.27
2022-10-19T20:50:44.593Z,99345.77
2022-10-19T20:53:12.682Z,99340.64
2022-10-19T20:55:41.436Z,99338.14
2022-10-19T20:58:10.365Z,99336.52
2022-10-19T21:00:41.398Z,99339.15
2022-10-19T21:03:16.521Z,99343.79
2022-10-19T21:05:46.529Z,99344.80
2022-10-19T21:08:21.487Z,99342.80
2022-10-19T21:10:50.413Z,99346.33
2022-10-19T21:13:55.619Z,99343.11
2022-10-19T21:16:30.291Z,99343.67
2022-10-19T21:18:58.131Z,99341.41
2022-10-19T21:21:34.832Z,99343.86
2022-10-19T21:24:06.925Z,99344.39
2022-10-19T21:26:36.542Z,99340.57
2022-10-19T21:29:14.025Z,99341.46
2022-10-19T21:31:48.711Z,99336.21
2022-10-19T21:34:25.228Z,99338.83
2022-10-19T21:36:54.042Z,99338.60
2022-10-19T21:39:31.613Z,99337.98
2022-10-19T21:42:09.548Z,99339.80
2022-10-19T21:44:39.497Z,99336.08
2022-10-19T21:47:13.458Z,99332.98
2022-10-19T21:49:47.516Z,99339.11
2022-10-19T21:52:16.470Z,99333.16
2022-10-19T21:54:46.393Z,99335.94
2022-10-19T21:57:47.568Z,99339.20
2022-10-19T22:00:22.457Z,99340.92
2022-10-19T22:07:17.646Z,99343.26
2022-10-19T22:09:49.307Z,99342.40
2022-10-19T22:12:19.043Z,99341.20
2022-10-19T22:14:52.935Z,99342.98
2022-10-19T22:17:20.732Z,99344.13
2022-10-19T22:20:22.552Z,99347.48
2022-10-19T22:22:58.521Z,99344.27
2022-10-19T22:25:35.235Z,99341.53
2022-10-19T22:28:08.599Z,99343.25
2022-10-19T22:30:38.558Z,99344.81
2022-10-19T22:33:08.283Z,99346.02
2022-10-19T22:35:52.980Z,99348.17
2022-10-19T22:38:22.081Z,99346.89
2022-10-19T22:40:51.065Z,99345.02
2022-10-19T22:43:26.481Z,99346.48
2022-10-19T22:46:00.555Z,99348.65
2022-10-19T22:48:35.557Z,99352.42
2022-10-19T22:51:11.566Z,99352.66
2022-10-19T22:53:41.561Z,99356.54
2022-10-19T22:56:14.093Z,99361.27
2022-10-19T22:58:41.802Z,99359.91
2022-10-19T23:01:18.209Z,99357.36
2022-10-19T23:03:51.477Z,99362.02
2022-10-19T23:06:27.620Z,99368.89
2022-10-19T23:08:55.840Z,99370.15
2022-10-19T23:11:25.776Z,99369.32
2022-10-19T23:13:53.709Z,99360.48
2022-10-19T23:16:29.931Z,99372.63
2022-10-19T23:18:57.706Z,99377.56
2022-10-19T23:21:26.828Z,99377.77
2022-10-19T23:23:55.840Z,99378.92
2022-10-19T23:26:33.466Z,99380.04
2022-10-19T23:29:02.277Z,99382.05
2022-10-19T23:31:30.652Z,99379.83
2022-10-19T23:33:59.549Z,99374.20
2022-10-19T23:36:29.474Z,99375.56
2022-10-19T23:39:02.547Z,99375.77
2022-10-19T23:41:37.534Z,99381.23
2022-10-19T23:44:06.092Z,99384.25
2022-10-19T23:46:35.014Z,99387.10
2022-10-19T23:49:03.864Z,99395.00
2022-10-19T23:51:33.703Z,99395.07
2022-10-19T23:54:02.541Z,99397.08
2022-10-19T23:56:32.605Z,99394.19
2022-10-19T23:59:02.884Z,99390.06
